createdAt,value
2023-04-12T00:00:56.273Z,98099.61
2023-04-12T00:03:25.446Z,98095.67
2023-04-12T00:05:56.249Z,98093.60
2023-04-12T00:08:33.880Z,98093.02
2023-04-12T00:11:03.567Z,98086.62
2023-04-12T00:13:31.718Z,98084.45
2023-04-12T00:16:00.985Z,98085.86
2023-04-12T00:18:29.737Z,98084.64
2023-04-12T00:20:57.720Z,98080.80
2023-04-12T00:23:28.782Z,98072.21
2023-04-12T00:25:57.253Z,98074.14
2023-04-12T00:28:26.199Z,98069.64
2023-04-12T00:30:55.394Z,98074.54
2023-04-12T00:33:23.558Z,98073.98
2023-04-12T00:35:52.158Z,98074.48
2023-04-12T00:38:23.296Z,98072.92
2023-04-12T00:40:52.027Z,98077.63
2023-04-12T00:43:20.464Z,98082.08
2023-04-12T00:45:48.683Z,98072.12
2023-04-12T00:48:20.905Z,98072.48
2023-04-12T00:50:50.231Z,98064.54
2023-04-12T00:53:18.545Z,98068.47
2023-04-12T00:55:46.968Z,98066.05
2023-04-12T00:58:15.587Z,98060.91
2023-04-12T01:00:50.522Z,98061.71
2023-04-12T01:03:23.557Z,98058.09
2023-04-12T01:06:32.402Z,98056.84
2023-04-12T01:09:27.404Z,98053.30
2023-04-12T01:12:07.203Z,98053.80
2023-04-12T01:15:03.113Z,98051.33
2023-04-12T01:17:38.098Z,98043.61
2023-04-12T01:20:13.796Z,98042.08
2023-04-12T01:22:48.736Z,98045.02
2023-04-12T01:25:35.641Z,98042.02
2023-04-12T01:28:03.843Z,98037.44
2023-04-12T01:30:33.241Z,98037.73
2023-04-12T01:33:03.621Z,98031.56
2023-04-12T01:35:34.630Z,98028.98
2023-04-12T01:38:03.290Z,98019.77
2023-04-12T01:40:32.593Z,98017.02
2023-04-12T01:43:12.011Z,98014.44
2023-04-12T01:45:40.505Z,98016.05
2023-04-12T01:48:10.839Z,98008.75
2023-04-12T01:51:06.483Z,98007.87
2023-04-12T01:53:50.089Z,98005.92
2023-04-12T01:56:22.526Z,98001.20
2023-04-12T01:58:51.939Z,97997.93
2023-04-12T02:01:19.870Z,97995.30
2023-04-12T02:03:51.791Z,97992.61
2023-04-12T02:06:21.071Z,97990.64
2023-04-12T02:08:49.249Z,97989.31
2023-04-12T02:11:18.176Z,97982.98
2023-04-12T02:13:46.904Z,97980.29
2023-04-12T02:16:14.948Z,97978.70
2023-04-12T02:18:43.813Z,97972.97
2023-04-12T02:21:13.095Z,97971.09
2023-04-12T02:23:44.106Z,97970.76
2023-04-12T02:26:12.930Z,97969.81
2023-04-12T02:28:41.602Z,97969.17
2023-04-12T02:31:17.178Z,97964.93
2023-04-12T02:33:46.700Z,97963.59
2023-04-12T02:36:14.999Z,97961.29
2023-04-12T02:38:43.430Z,97965.79
2023-04-12T02:41:20.640Z,97958.13
2023-04-12T02:43:49.045Z,97959.80
2023-04-12T02:46:24.329Z,97952.66
2023-04-12T02:48:57.110Z,97952.30
2023-04-12T02:51:32.298Z,97951.45
2023-04-12T02:54:01.308Z,97950.61
2023-04-12T02:56:36.201Z,97944.10
2023-04-12T02:59:14.020Z,97946.27
2023-04-12T03:02:02.311Z,97942.49
2023-04-12T03:04:33.001Z,97942.83
2023-04-12T03:07:01.693Z,97937.55
2023-04-12T03:09:38.720Z,97939.77
2023-04-12T03:12:07.134Z,97942.15
2023-04-12T03:14:38.865Z,97939.05
2023-04-12T03:17:08.565Z,97932.92
2023-04-12T03:19:37.500Z,97931.55
2023-04-12T03:22:07.911Z,97932.98
2023-04-12T03:24:38.901Z,97931.71
2023-04-12T03:27:08.326Z,97926.81
2023-04-12T03:29:38.180Z,97924.34
2023-04-12T03:32:08.255Z,97925.33
2023-04-12T03:34:36.762Z,97920.10
2023-04-12T03:37:11.359Z,97916.64
2023-04-12T03:39:44.949Z,97917.92
2023-04-12T03:42:29.467Z,97912.98
2023-04-12T03:45:02.768Z,97907.27
2023-04-12T03:47:31.762Z,97908.15
2023-04-12T03:50:11.404Z,97909.67
2023-04-12T03:52:41.008Z,97910.73
2023-04-12T03:55:09.454Z,97911.73
2023-04-12T03:57:37.980Z,97910.48
2023-04-12T04:00:11.585Z,97907.59
2023-04-12T04:03:09.269Z,97902.89
2023-04-12T04:05:47.477Z,97904.02
2023-04-12T04:08:17.155Z,97908.84
2023-04-12T04:10:56.696Z,97903.97
2023-04-12T04:13:33.635Z,97908.34
2023-04-12T04:16:06.437Z,97907.17
2023-04-12T04:18:35.981Z,97900.02
2023-04-12T04:21:09.552Z,97901.59
2023-04-12T04:23:44.931Z,97897.96
2023-04-12T04:26:20.404Z,97901.61
2023-04-12T04:29:01.982Z,97901.28
2023-04-12T04:31:36.544Z,97901.91
2023-04-12T04:34:05.909Z,97903.30
2023-04-12T04:36:35.840Z,97899.77
2023-04-12T04:39:15.905Z,97900.94
2023-04-12T04:41:46.934Z,97904.20
2023-04-12T04:44:23.501Z,97908.96
2023-04-12T04:46:59.247Z,97899.52
2023-04-12T04:49:37.391Z,97902.59
2023-04-12T04:52:26.852Z,97905.64
2023-04-12T04:54:59.164Z,97903.87
2023-04-12T04:57:30.693Z,97903.55
2023-04-12T04:59:58.912Z,97901.35
2023-04-12T05:02:27.174Z,97902.67
2023-04-12T05:05:00.152Z,97901.23
2023-04-12T05:07:29.594Z,97897.67
2023-04-12T05:09:58.069Z,97897.88
2023-04-12T05:12:26.466Z,97897.42
2023-04-12T05:15:08.822Z,97886.67
2023-04-12T05:17:39.225Z,97891.66
2023-04-12T05:20:08.126Z,97891.68
2023-04-12T05:22:38.437Z,97887.75
2023-04-12T05:25:08.250Z,97890.66
2023-04-12T05:27:40.793Z,97888.89
2023-04-12T05:30:10.270Z,97892.30
2023-04-12T05:32:40.996Z,97890.80
2023-04-12T05:35:09.818Z,97887.63
2023-04-12T05:37:39.125Z,97883.09
2023-04-12T05:40:10.168Z,97874.98
2023-04-12T05:42:39.328Z,97873.48
2023-04-12T05:45:08.282Z,97878.61
2023-04-12T05:47:38.372Z,97873.12
2023-04-12T05:50:07.667Z,97877.33
2023-04-12T05:52:44.301Z,97872.85
2023-04-12T05:55:12.678Z,97871.02
2023-04-12T05:57:44.357Z,97867.83
2023-04-12T06:00:17.583Z,97860.44
2023-04-12T06:02:48.057Z,97865.60
2023-04-12T06:05:19.524Z,97861.83
2023-04-12T06:07:49.376Z,97856.46
2023-04-12T06:10:18.275Z,97855.91
2023-04-12T06:12:50.949Z,97856.30
2023-04-12T06:15:22.198Z,97851.58
2023-04-12T06:17:55.329Z,97856.94
2023-04-12T06:20:24.774Z,97850.21
2023-04-12T06:22:54.868Z,97850.33
2023-04-12T06:25:23.100Z,97848.69
2023-04-12T06:27:53.914Z,97846.73
2023-04-12T06:30:24.172Z,97843.77
2023-04-12T06:32:54.212Z,97836.36
2023-04-12T06:35:24.868Z,97842.48
2023-04-12T06:37:52.941Z,97839.45
2023-04-12T06:40:21.538Z,97837.67
2023-04-12T06:42:52.555Z,97829.90
2023-04-12T06:45:23.742Z,97829.49
2023-04-12T06:47:51.757Z,97833.53
2023-04-12T06:50:20.298Z,97831.37
2023-04-12T06:52:49.500Z,97832.48
2023-04-12T06:55:17.953Z,97837.35
2023-04-12T06:57:46.283Z,97834.98
2023-04-12T07:00:18.934Z,97829.38
2023-04-12T07:02:47.385Z,97834.11
2023-04-12T07:05:15.910Z,97829.62
2023-04-12T07:07:45.163Z,97832.17
2023-04-12T07:10:13.327Z,97829.63
2023-04-12T07:12:42.326Z,97823.36
2023-04-12T07:15:13.780Z,97823.09
2023-04-12T07:17:43.519Z,97821.20
2023-04-12T07:20:12.138Z,97818.92
2023-04-12T07:22:43.093Z,97820.33
2023-04-12T07:25:11.410Z,97819.83
2023-04-12T07:27:39.458Z,97814.07
2023-04-12T07:30:09.146Z,97815.95
2023-04-12T07:32:37.452Z,97815.34
2023-04-12T07:35:08.728Z,97811.06
2023-04-12T07:37:37.662Z,97803.81
2023-04-12T07:40:08.793Z,97811.22
2023-04-12T07:42:36.675Z,97810.02
2023-04-12T07:45:06.937Z,97801.69
2023-04-12T07:47:36.141Z,97807.01
2023-04-12T07:50:05.272Z,97809.79
2023-04-12T07:52:33.586Z,97814.52
2023-04-12T07:55:07.991Z,97806.36
2023-04-12T07:57:36.826Z,97809.30
2023-04-12T08:00:06.094Z,97814.73
2023-04-12T08:02:41.741Z,97816.09
2023-04-12T08:05:10.293Z,97811.60
2023-04-12T08:07:46.533Z,97810.77
2023-04-12T08:10:14.718Z,97807.36
2023-04-12T08:12:42.927Z,97802.65
2023-04-12T08:15:14.066Z,97815.00
2023-04-12T08:17:44.060Z,97809.89
2023-04-12T08:20:29.775Z,97799.67
2023-04-12T08:23:04.219Z,97806.42
2023-04-12T08:25:32.498Z,97801.92
2023-04-12T08:28:00.673Z,97804.55
2023-04-12T08:30:29.121Z,97799.20
2023-04-12T08:32:57.453Z,97798.79
2023-04-12T08:35:25.634Z,97800.23
2023-04-12T08:37:53.860Z,97801.23
2023-04-12T08:40:22.222Z,97800.02
2023-04-12T08:42:50.708Z,97799.59
2023-04-12T08:45:19.294Z,97798.45
2023-04-12T08:47:47.848Z,97796.62
2023-04-12T08:50:17.458Z,97793.94
2023-04-12T08:52:47.085Z,97790.69
2023-04-12T08:55:15.009Z,97794.30
2023-04-12T08:57:43.783Z,97788.71
2023-04-12T09:00:13.268Z,97782.73
2023-04-12T09:02:47.412Z,97782.15
2023-04-12T09:05:15.905Z,97779.85
2023-04-12T09:07:44.048Z,97777.98
2023-04-12T09:10:12.310Z,97777.95
2023-04-12T09:12:47.333Z,97778.73
2023-04-12T09:15:17.800Z,97779.10
2023-04-12T09:17:46.250Z,97775.20
2023-04-12T09:20:17.507Z,97771.93
2023-04-12T09:22:47.838Z,97773.85
2023-04-12T09:25:16.043Z,97771.66
2023-04-12T09:27:48.124Z,97765.64
2023-04-12T09:30:17.354Z,97768.28
2023-04-12T09:33:12.664Z,97769.39
2023-04-12T09:35:43.129Z,97769.64
2023-04-12T09:38:11.567Z,97762.42
2023-04-12T09:40:40.614Z,97766.55
2023-04-12T09:43:09.921Z,97761.43
2023-04-12T09:45:40.903Z,97759.80
2023-04-12T09:48:09.659Z,97761.09
2023-04-12T09:50:38.055Z,97760.36
2023-04-12T09:53:15.766Z,97755.67
2023-04-12T09:55:44.410Z,97758.16
2023-04-12T09:58:12.360Z,97747.04
2023-04-12T10:00:40.712Z,97755.14
2023-04-12T10:03:09.373Z,97751.90
2023-04-12T10:05:38.575Z,97749.39
2023-04-12T10:08:07.180Z,97754.48
2023-04-12T10:10:36.150Z,97749.02
2023-04-12T10:13:04.274Z,97749.00
2023-04-12T10:15:37.007Z,97742.76
2023-04-12T10:18:08.794Z,97740.77
2023-04-12T10:20:37.270Z,97744.33
2023-04-12T10:23:06.556Z,97740.00
2023-04-12T10:25:35.100Z,97750.01
2023-04-12T10:28:21.889Z,97743.58
2023-04-12T10:30:58.148Z,97746.36
2023-04-12T10:33:33.398Z,97751.77
2023-04-12T10:36:11.315Z,97743.77
2023-04-12T10:39:10.007Z,97747.02
2023-04-12T10:41:38.076Z,97747.90
2023-04-12T10:44:26.209Z,97750.06
2023-04-12T10:46:54.472Z,97746.04
2023-04-12T10:49:22.851Z,97749.88
2023-04-12T10:52:01.655Z,97745.55
2023-04-12T10:54:32.064Z,97747.51
2023-04-12T10:57:00.008Z,97740.60
2023-04-12T10:59:56.822Z,97743.98
2023-04-12T11:02:26.383Z,97748.36
2023-04-12T11:05:10.713Z,97749.24
2023-04-12T11:08:05.815Z,97742.23
2023-04-12T11:11:18.780Z,97745.14
2023-04-12T11:13:46.958Z,97750.42
2023-04-12T11:16:23.373Z,97740.89
2023-04-12T11:18:54.425Z,97742.16
2023-04-12T11:21:24.185Z,97739.32
2023-04-12T11:23:53.013Z,97747.98
2023-04-12T11:26:22.131Z,97746.21
2023-04-12T11:28:53.296Z,97744.10
2023-04-12T11:31:22.124Z,97739.55
2023-04-12T11:33:50.938Z,97741.80
2023-04-12T11:36:18.986Z,97738.52
2023-04-12T11:38:47.260Z,97745.12
2023-04-12T11:41:15.460Z,97732.39
2023-04-12T11:43:44.707Z,97734.63
2023-04-12T11:46:13.140Z,97727.92
2023-04-12T11:51:31.578Z,97737.27
2023-04-12T11:54:02.113Z,97732.42
2023-04-12T11:56:32.011Z,97734.38
2023-04-12T11:59:00.209Z,97726.75
2023-04-12T12:01:29.355Z,97730.22
2023-04-12T12:03:58.853Z,97726.91
2023-04-12T12:06:28.199Z,97726.64
2023-04-12T12:08:56.796Z,97725.98
2023-04-12T12:11:26.785Z,97719.94
2023-04-12T12:13:56.582Z,97724.99
2023-04-12T12:16:28.286Z,97729.34
2023-04-12T12:18:59.756Z,97728.62
2023-04-12T12:21:29.770Z,97720.67
2023-04-12T12:23:58.842Z,97715.69
2023-04-12T12:26:28.356Z,97711.05
2023-04-12T12:28:57.618Z,97713.67
2023-04-12T12:31:28.681Z,97711.07
2023-04-12T12:33:58.217Z,97710.88
2023-04-12T12:36:33.511Z,97711.62
2023-04-12T12:39:12.463Z,97713.14
2023-04-12T12:41:41.355Z,97708.10
2023-04-12T12:44:15.529Z,97707.01
2023-04-12T12:46:55.036Z,97703.19
2023-04-12T12:49:25.368Z,97701.31
2023-04-12T12:51:54.916Z,97695.27
2023-04-12T12:54:39.431Z,97696.67
2023-04-12T12:57:09.077Z,97698.65
2023-04-12T12:59:37.635Z,97691.72
2023-04-12T13:02:07.544Z,97689.26
2023-04-12T13:04:40.106Z,97686.18
2023-04-12T13:07:08.954Z,97687.77
2023-04-12T13:09:37.528Z,97689.70
2023-04-12T13:12:10.179Z,97691.81
2023-04-12T13:14:41.920Z,97686.17
2023-04-12T13:17:09.913Z,97688.58
2023-04-12T13:19:46.551Z,97692.73
2023-04-12T13:22:16.910Z,97687.18
2023-04-12T13:24:45.266Z,97684.17
2023-04-12T13:27:15.370Z,97689.90
2023-04-12T13:29:43.775Z,97685.61
2023-04-12T13:32:13.431Z,97685.42
2023-04-12T13:34:43.173Z,97687.92
2023-04-12T13:37:12.558Z,97686.32
2023-04-12T13:39:47.046Z,97689.31
2023-04-12T13:42:16.487Z,97692.34
2023-04-12T13:44:44.431Z,97689.52
2023-04-12T13:47:18.234Z,97696.02
2023-04-12T13:49:47.240Z,97695.85
2023-04-12T13:52:15.760Z,97696.23
2023-04-12T13:54:47.720Z,97698.13
2023-04-12T13:57:16.741Z,97701.80
2023-04-12T13:59:50.928Z,97700.64
2023-04-12T14:02:19.355Z,97703.42
2023-04-12T14:04:55.419Z,97705.80
2023-04-12T14:07:24.262Z,97709.13
2023-04-12T14:09:52.215Z,97711.35
2023-04-12T14:12:20.706Z,97711.34
2023-04-12T14:14:48.678Z,97712.70
2023-04-12T14:17:19.875Z,97712.59
2023-04-12T14:19:48.026Z,97714.58
2023-04-12T14:22:16.113Z,97717.95
2023-04-12T14:24:48.734Z,97721.55
2023-04-12T14:27:18.001Z,97722.54
2023-04-12T14:29:46.622Z,97724.77
2023-04-12T14:32:17.098Z,97719.69
2023-04-12T14:34:46.540Z,97717.29
2023-04-12T14:37:14.538Z,97722.50
2023-04-12T14:39:44.521Z,97716.52
2023-04-12T14:42:13.935Z,97718.36
2023-04-12T14:44:45.514Z,97715.71
2023-04-12T14:47:13.507Z,97718.95
2023-04-12T14:49:42.097Z,97716.20
2023-04-12T14:52:16.544Z,97716.52
2023-04-12T14:54:46.112Z,97716.71
2023-04-12T14:57:15.068Z,97719.12
2023-04-12T14:59:50.568Z,97720.75
2023-04-12T15:02:22.180Z,97720.83
2023-04-12T15:04:52.162Z,97718.55
2023-04-12T15:07:21.065Z,97720.30
2023-04-12T15:09:49.332Z,97721.33
2023-04-12T15:12:17.351Z,97720.59
2023-04-12T15:14:47.428Z,97721.00
2023-04-12T15:17:20.605Z,97719.63
2023-04-12T15:19:49.086Z,97717.48
2023-04-12T15:22:20.717Z,97717.13
2023-04-12T15:24:49.803Z,97712.08
2023-04-12T15:27:18.831Z,97707.95
2023-04-12T15:29:47.218Z,97706.27
2023-04-12T15:32:16.549Z,97706.27
2023-04-12T15:34:45.517Z,97703.29
2023-04-12T15:37:14.443Z,97707.17
2023-04-12T15:39:42.834Z,97709.80
2023-04-12T15:42:11.041Z,97703.74
2023-04-12T15:44:39.059Z,97702.27
2023-04-12T15:47:11.441Z,97703.28
2023-04-12T15:49:40.454Z,97701.13
2023-04-12T15:52:08.473Z,97704.16
2023-04-12T15:54:43.525Z,97702.40
2023-04-12T15:57:12.497Z,97700.98
2023-04-12T15:59:40.859Z,97699.88
2023-04-12T16:02:10.160Z,97700.10
2023-04-12T16:04:39.546Z,97698.77
2023-04-12T16:07:07.811Z,97703.89
2023-04-12T16:09:37.970Z,97700.17
2023-04-12T16:12:07.467Z,97699.85
2023-04-12T16:14:36.860Z,97696.59
2023-04-12T16:17:09.230Z,97702.78
2023-04-12T16:19:38.132Z,97700.20
2023-04-12T16:22:06.355Z,97695.86
2023-04-12T16:24:41.127Z,97697.12
2023-04-12T16:27:09.110Z,97694.99
2023-04-12T16:29:37.109Z,97697.02
2023-04-12T16:32:05.351Z,97700.13
2023-04-12T16:34:34.522Z,97699.48
2023-04-12T16:37:02.769Z,97702.10
2023-04-12T16:39:32.312Z,97706.70
2023-04-12T16:42:04.318Z,97709.71
2023-04-12T16:44:32.692Z,97710.48
2023-04-12T16:47:02.385Z,97708.55
2023-04-12T16:49:32.247Z,97712.60
2023-04-12T16:52:01.731Z,97713.66
2023-04-12T16:54:33.892Z,97717.84
2023-04-12T16:57:02.767Z,97719.17
2023-04-12T16:59:32.892Z,97721.20
2023-04-12T17:02:01.272Z,97722.67
2023-04-12T17:04:30.266Z,97724.09
2023-04-12T17:06:58.966Z,97720.41
2023-04-12T17:09:28.138Z,97725.11
2023-04-12T17:11:56.727Z,97727.16
2023-04-12T17:14:27.691Z,97725.09
2023-04-12T17:16:58.815Z,97729.05
2023-04-12T17:19:30.181Z,97729.75
2023-04-12T17:21:58.345Z,97729.92
2023-04-12T17:24:29.354Z,97733.19
2023-04-12T17:26:59.328Z,97732.84
2023-04-12T17:29:28.095Z,97732.55
2023-04-12T17:31:56.545Z,97731.67
2023-04-12T17:34:24.550Z,97735.68
2023-04-12T17:36:55.241Z,97733.25
2023-04-12T17:39:26.248Z,97739.08
2023-04-12T17:41:54.478Z,97741.14
2023-04-12T17:44:22.821Z,97742.25
2023-04-12T17:46:52.077Z,97743.61
2023-04-12T17:49:20.274Z,97747.58
2023-04-12T17:51:48.224Z,97749.90
2023-04-12T17:54:17.013Z,97750.90
2023-04-12T17:56:45.268Z,97748.14
2023-04-12T17:59:13.608Z,97742.85
2023-04-12T18:01:43.232Z,97744.35
2023-04-12T18:04:11.902Z,97738.00
2023-04-12T18:06:40.207Z,97739.83
2023-04-12T18:09:10.957Z,97738.95
2023-04-12T18:11:42.361Z,97737.37
2023-04-12T18:14:10.414Z,97735.52
2023-04-12T18:16:39.057Z,97738.04
2023-04-12T18:19:07.926Z,97741.27
2023-04-12T18:21:36.197Z,97736.73
2023-04-12T18:24:04.826Z,97727.50
2023-04-12T18:26:35.158Z,97725.21
2023-04-12T18:29:03.350Z,97723.52
2023-04-12T18:31:32.043Z,97722.87
2023-04-12T18:34:00.598Z,97723.74
2023-04-12T18:36:28.886Z,97717.59
2023-04-12T18:38:57.360Z,97714.33
2023-04-12T18:41:26.359Z,97710.63
2023-04-12T18:43:54.460Z,97705.60
2023-04-12T18:46:22.856Z,97702.61
2023-04-12T18:48:54.563Z,97712.60
2023-04-12T18:51:23.319Z,97709.72
2023-04-12T18:53:51.481Z,97703.44
2023-04-12T18:56:24.571Z,97703.23
2023-04-12T18:58:56.208Z,97699.02
2023-04-12T19:01:25.283Z,97706.21
2023-04-12T19:03:56.441Z,97705.19
2023-04-12T19:06:25.024Z,97707.33
2023-04-12T19:08:53.106Z,97705.11
2023-04-12T19:11:24.634Z,97707.36
2023-04-12T19:13:53.571Z,97707.64
2023-04-12T19:16:22.662Z,97715.17
2023-04-12T19:18:55.524Z,97716.91
2023-04-12T19:21:24.423Z,97712.98
2023-04-12T19:23:53.171Z,97722.89
2023-04-12T19:26:23.052Z,97720.58
2023-04-12T19:28:55.640Z,97720.11
2023-04-12T19:31:24.004Z,97716.18
2023-04-12T19:33:55.980Z,97704.34
2023-04-12T19:36:25.768Z,97701.27
2023-04-12T19:38:54.830Z,97707.67
2023-04-12T19:41:23.809Z,97707.08
2023-04-12T19:43:52.042Z,97704.14
2023-04-12T19:46:20.431Z,97696.98
2023-04-12T19:48:48.914Z,97711.02
2023-04-12T19:51:16.849Z,97710.36
2023-04-12T19:53:47.797Z,97704.73
2023-04-12T19:56:18.756Z,97710.75
2023-04-12T19:58:50.035Z,97703.46
2023-04-12T20:01:18.879Z,97691.78
2023-04-12T20:03:47.406Z,97702.43
2023-04-12T20:06:15.955Z,97693.55
2023-04-12T20:08:43.847Z,97690.48
2023-04-12T20:11:12.495Z,97707.92
2023-04-12T20:13:48.795Z,97706.09
2023-04-12T20:16:17.583Z,97713.27
2023-04-12T20:18:45.588Z,97717.48
2023-04-12T20:21:13.868Z,97712.13
2023-04-12T20:23:42.521Z,97719.11
2023-04-12T20:26:11.530Z,97719.74
2023-04-12T20:28:39.705Z,97721.36
2023-04-12T20:31:07.980Z,97711.04
2023-04-12T20:33:36.514Z,97718.59
2023-04-12T20:36:04.852Z,97718.05
2023-04-12T20:38:34.290Z,97719.48
2023-04-12T20:41:02.623Z,97716.47
2023-04-12T20:43:33.160Z,97721.73
2023-04-12T20:46:02.087Z,97722.58
2023-04-12T20:48:31.568Z,97721.48
2023-04-12T20:50:59.448Z,97717.94
2023-04-12T20:53:27.629Z,97720.79
2023-04-12T20:55:55.757Z,97718.11
2023-04-12T20:58:24.653Z,97715.79
2023-04-12T21:00:52.519Z,97715.94
2023-04-12T21:03:22.150Z,97717.88
2023-04-12T21:05:51.059Z,97722.02
2023-04-12T21:08:22.833Z,97720.73
2023-04-12T21:10:50.916Z,97717.11
2023-04-12T21:13:21.986Z,97712.10
2023-04-12T21:15:50.568Z,97711.08
2023-04-12T21:18:23.650Z,97713.18
2023-04-12T21:20:51.943Z,97715.49
2023-04-12T21:23:20.095Z,97713.42
2023-04-12T21:25:49.113Z,97712.63
2023-04-12T21:28:18.196Z,97713.81
2023-04-12T21:30:46.304Z,97710.38
2023-04-12T21:33:24.795Z,97707.70
2023-04-12T21:35:54.544Z,97712.02
2023-04-12T21:38:23.004Z,97714.69
2023-04-12T21:40:51.722Z,97713.52
2023-04-12T21:43:20.929Z,97713.27
2023-04-12T21:45:49.126Z,97720.39
2023-04-12T21:48:17.956Z,97718.27
2023-04-12T21:50:46.230Z,97717.23
2023-04-12T21:53:14.441Z,97716.81
2023-04-12T21:55:44.932Z,97717.23
2023-04-12T21:58:13.450Z,97717.82
2023-04-12T22:00:44.027Z,97719.15
2023-04-12T22:03:12.361Z,97720.23
2023-04-12T22:06:00.890Z,97719.56
2023-04-12T22:08:33.096Z,97715.55
2023-04-12T22:11:01.450Z,97715.45
2023-04-12T22:13:31.038Z,97715.42
2023-04-12T22:16:02.540Z,97716.23
2023-04-12T22:18:31.864Z,97712.19
2023-04-12T22:21:04.181Z,97707.98
2023-04-12T22:23:32.046Z,97706.13
2023-04-12T22:26:00.293Z,97705.11
2023-04-12T22:28:34.031Z,97699.53
2023-04-12T22:31:02.713Z,97700.79
2023-04-12T22:33:31.066Z,97702.09
2023-04-12T22:36:02.119Z,97701.55
2023-04-12T22:38:30.989Z,97701.62
2023-04-12T22:41:02.364Z,97696.58
2023-04-12T22:43:41.614Z,97689.27
2023-04-12T22:46:16.278Z,97688.80
2023-04-12T22:48:48.274Z,97686.01
2023-04-12T22:51:19.819Z,97686.69
2023-04-12T22:53:50.337Z,97685.58
2023-04-12T22:56:20.099Z,97688.82
2023-04-12T22:58:48.644Z,97690.84
2023-04-12T23:01:17.573Z,97695.02
2023-04-12T23:03:46.354Z,97696.10
2023-04-12T23:06:19.749Z,97693.46
2023-04-12T23:08:49.712Z,97688.74
2023-04-12T23:11:17.807Z,97682.14
2023-04-12T23:13:45.932Z,97676.50
2023-04-12T23:16:17.630Z,97673.56
2023-04-12T23:18:46.010Z,97672.80
2023-04-12T23:21:14.929Z,97671.04
2023-04-12T23:23:49.179Z,97675.96
2023-04-12T23:26:18.319Z,97667.29
2023-04-12T23:28:46.297Z,97661.27
2023-04-12T23:31:16.416Z,97658.01
2023-04-12T23:33:45.922Z,97652.82
2023-04-12T23:36:14.289Z,97645.45
2023-04-12T23:38:44.449Z,97639.95
2023-04-12T23:41:12.702Z,97640.27
2023-04-12T23:43:41.048Z,97635.88
2023-04-12T23:46:09.856Z,97633.16
2023-04-12T23:48:38.111Z,97630.70
2023-04-12T23:51:07.454Z,97628.84
2023-04-12T23:53:37.568Z,97629.30
2023-04-12T23:56:06.963Z,97628.38
2023-04-12T23:58:35.617Z,97628.34
